LA22 weather

PG&E Livermore Training Center Heliport
Livermore, California, United States

Public forecast

Using degrees Fahrenheit for public forecast. Weather courtesy of forecast.io.

Closest aviation weather report (METAR) to PG&E Livermore Training Center Heliport

Closest report is Livermore Municipal Airport, 5.2 nm (9.7 km) W. Retrieved 2019/10/16 02:53 UTC (48 minutes ago):

KLVK 160253Z 30007KT 10SM CLR 18/09 A3000 RMK AO2 SLP158 T01830089 53004

Closest aviation forecast (TAF) to PG&E Livermore Training Center Heliport

Closest forecast is Livermore Municipal Airport, 5.2 nm (9.7 km) W. Retrieved 2019-10-16 00:27 UTC (3 hours ago):

TAF KLVK 152325Z 1600/1624 27006KT P6SM SKC FM160600 VRB03KT P6SM FEW200 FM161200 VRB03KT P6SM BKN200 FM162100 27006KT P6SM BKN200